sensor_id;sensor_type;location;lat;lon;timestamp;P1;durP1;ratioP1;P2;durP2;ratioP2
22070;SDS011;11200;51.488;6.668;2022-11-15T00:00:31;7.50;;;6.72;;
22070;SDS011;11200;51.488;6.668;2022-11-15T00:02:57;7.38;;;6.40;;
22070;SDS011;11200;51.488;6.668;2022-11-15T00:05:23;7.70;;;6.75;;
22070;SDS011;11200;51.488;6.668;2022-11-15T00:07:49;6.97;;;6.28;;
22070;SDS011;11200;51.488;6.668;2022-11-15T00:10:14;9.75;;;6.82;;
22070;SDS011;11200;51.488;6.668;2022-11-15T00:12:40;7.85;;;6.50;;
22070;SDS011;11200;51.488;6.668;2022-11-15T00:15:06;8.43;;;7.00;;
22070;SDS011;11200;51.488;6.668;2022-11-15T00:17:32;7.88;;;6.45;;
22070;SDS011;11200;51.488;6.668;2022-11-15T00:19:57;7.68;;;6.25;;
22070;SDS011;11200;51.488;6.668;2022-11-15T00:22:23;7.57;;;6.80;;
22070;SDS011;11200;51.488;6.668;2022-11-15T00:24:49;7.72;;;6.63;;
22070;SDS011;11200;51.488;6.668;2022-11-15T00:27:14;9.05;;;6.45;;
22070;SDS011;11200;51.488;6.668;2022-11-15T00:29:40;7.75;;;6.45;;
22070;SDS011;11200;51.488;6.668;2022-11-15T00:32:08;7.75;;;6.57;;
22070;SDS011;11200;51.488;6.668;2022-11-15T00:34:35;7.78;;;6.60;;
22070;SDS011;11200;51.488;6.668;2022-11-15T00:37:00;7.63;;;6.65;;
22070;SDS011;11200;51.488;6.668;2022-11-15T00:39:26;7.72;;;6.40;;
22070;SDS011;11200;51.488;6.668;2022-11-15T00:41:51;7.07;;;6.20;;
22070;SDS011;11200;51.488;6.668;2022-11-15T00:44:17;8.82;;;6.82;;
22070;SDS011;11200;51.488;6.668;2022-11-15T00:46:42;7.93;;;6.57;;
22070;SDS011;11200;51.488;6.668;2022-11-15T00:49:08;7.65;;;6.40;;
22070;SDS011;11200;51.488;6.668;2022-11-15T00:51:34;7.38;;;6.38;;
22070;SDS011;11200;51.488;6.668;2022-11-15T00:53:59;7.18;;;6.05;;
22070;SDS011;11200;51.488;6.668;2022-11-15T00:56:25;7.43;;;6.22;;
22070;SDS011;11200;51.488;6.668;2022-11-15T00:58:50;8.35;;;6.57;;
22070;SDS011;11200;51.488;6.668;2022-11-15T01:01:17;7.70;;;6.03;;
22070;SDS011;11200;51.488;6.668;2022-11-15T01:03:42;6.55;;;5.78;;
22070;SDS011;11200;51.488;6.668;2022-11-15T01:06:08;8.18;;;6.45;;
22070;SDS011;11200;51.488;6.668;2022-11-15T01:08:39;7.70;;;6.32;;
22070;SDS011;11200;51.488;6.668;2022-11-15T01:11:06;7.63;;;6.38;;
22070;SDS011;11200;51.488;6.668;2022-11-15T01:13:34;7.20;;;5.63;;
22070;SDS011;11200;51.488;6.668;2022-11-15T01:16:08;7.43;;;6.03;;
22070;SDS011;11200;51.488;6.668;2022-11-15T01:18:36;6.70;;;6.00;;
22070;SDS011;11200;51.488;6.668;2022-11-15T01:21:06;6.97;;;5.80;;
22070;SDS011;11200;51.488;6.668;2022-11-15T01:23:33;8.27;;;6.57;;
22070;SDS011;11200;51.488;6.668;2022-11-15T01:25:59;7.45;;;5.90;;
22070;SDS011;11200;51.488;6.668;2022-11-15T01:28:29;7.55;;;5.50;;
22070;SDS011;11200;51.488;6.668;2022-11-15T01:31:00;7.30;;;6.07;;
22070;SDS011;11200;51.488;6.668;2022-11-15T01:33:26;7.68;;;6.03;;
22070;SDS011;11200;51.488;6.668;2022-11-15T01:35:53;7.70;;;6.15;;
22070;SDS011;11200;51.488;6.668;2022-11-15T01:38:19;7.55;;;6.13;;
22070;SDS011;11200;51.488;6.668;2022-11-15T01:40:45;8.68;;;6.63;;
22070;SDS011;11200;51.488;6.668;2022-11-15T01:43:26;8.25;;;6.30;;
22070;SDS011;11200;51.488;6.668;2022-11-15T01:46:20;7.90;;;6.18;;
22070;SDS011;11200;51.488;6.668;2022-11-15T01:48:48;7.22;;;6.00;;
22070;SDS011;11200;51.488;6.668;2022-11-15T01:51:17;7.95;;;5.72;;
22070;SDS011;11200;51.488;6.668;2022-11-15T01:53:45;6.70;;;5.97;;
22070;SDS011;11200;51.488;6.668;2022-11-15T01:56:16;6.90;;;5.90;;
22070;SDS011;11200;51.488;6.668;2022-11-15T01:58:45;8.02;;;6.57;;
22070;SDS011;11200;51.488;6.668;2022-11-15T02:01:12;8.30;;;6.55;;
22070;SDS011;11200;51.488;6.668;2022-11-15T02:03:49;7.28;;;6.10;;
22070;SDS011;11200;51.488;6.668;2022-11-15T02:06:19;8.05;;;5.82;;
22070;SDS011;11200;51.488;6.668;2022-11-15T02:08:46;8.75;;;6.40;;
22070;SDS011;11200;51.488;6.668;2022-11-15T02:11:12;9.27;;;6.10;;
22070;SDS011;11200;51.488;6.668;2022-11-15T02:13:38;7.07;;;5.80;;
22070;SDS011;11200;51.488;6.668;2022-11-15T02:19:13;7.70;;;6.10;;
22070;SDS011;11200;51.488;6.668;2022-11-15T02:28:10;7.38;;;6.10;;
22070;SDS011;11200;51.488;6.668;2022-11-15T02:30:53;8.20;;;5.90;;
22070;SDS011;11200;51.488;6.668;2022-11-15T02:33:43;6.60;;;5.85;;
22070;SDS011;11200;51.488;6.668;2022-11-15T02:38:59;8.48;;;5.78;;
22070;SDS011;11200;51.488;6.668;2022-11-15T02:44:31;6.38;;;5.40;;
22070;SDS011;11200;51.488;6.668;2022-11-15T02:47:04;7.43;;;5.78;;
22070;SDS011;11200;51.488;6.668;2022-11-15T02:49:40;6.20;;;5.10;;
22070;SDS011;11200;51.488;6.668;2022-11-15T02:52:17;9.00;;;5.90;;
22070;SDS011;11200;51.488;6.668;2022-11-15T02:55:00;7.22;;;5.97;;
22070;SDS011;11200;51.488;6.668;2022-11-15T03:00:09;6.35;;;5.65;;
22070;SDS011;11200;51.488;6.668;2022-11-15T03:05:42;6.57;;;5.10;;
22070;SDS011;11200;51.488;6.668;2022-11-15T03:08:17;5.78;;;5.10;;
22070;SDS011;11200;51.488;6.668;2022-11-15T03:18:41;7.13;;;5.40;;
22070;SDS011;11200;51.488;6.668;2022-11-15T03:21:10;6.10;;;5.22;;
22070;SDS011;11200;51.488;6.668;2022-11-15T03:23:38;6.55;;;4.95;;
22070;SDS011;11200;51.488;6.668;2022-11-15T03:26:05;6.55;;;5.20;;
22070;SDS011;11200;51.488;6.668;2022-11-15T03:28:38;7.55;;;5.63;;
22070;SDS011;11200;51.488;6.668;2022-11-15T03:31:15;5.88;;;5.00;;
22070;SDS011;11200;51.488;6.668;2022-11-15T03:34:02;7.13;;;5.18;;
22070;SDS011;11200;51.488;6.668;2022-11-15T03:36:32;6.82;;;5.40;;
22070;SDS011;11200;51.488;6.668;2022-11-15T03:39:00;6.63;;;5.35;;
22070;SDS011;11200;51.488;6.668;2022-11-15T03:41:33;6.28;;;5.15;;
22070;SDS011;11200;51.488;6.668;2022-11-15T03:44:06;5.93;;;5.05;;
22070;SDS011;11200;51.488;6.668;2022-11-15T03:46:39;6.72;;;5.43;;
22070;SDS011;11200;51.488;6.668;2022-11-15T03:49:17;6.05;;;5.20;;
22070;SDS011;11200;51.488;6.668;2022-11-15T03:51:49;7.75;;;5.13;;
22070;SDS011;11200;51.488;6.668;2022-11-15T03:54:15;7.03;;;5.55;;
22070;SDS011;11200;51.488;6.668;2022-11-15T03:56:40;6.07;;;5.13;;
22070;SDS011;11200;51.488;6.668;2022-11-15T03:59:06;7.07;;;5.72;;
22070;SDS011;11200;51.488;6.668;2022-11-15T04:01:32;5.80;;;5.18;;
22070;SDS011;11200;51.488;6.668;2022-11-15T04:03:57;5.57;;;4.88;;
22070;SDS011;11200;51.488;6.668;2022-11-15T04:06:23;7.32;;;5.70;;
22070;SDS011;11200;51.488;6.668;2022-11-15T04:08:48;6.47;;;5.05;;
22070;SDS011;11200;51.488;6.668;2022-11-15T04:11:14;7.65;;;5.93;;
22070;SDS011;11200;51.488;6.668;2022-11-15T04:13:39;7.15;;;5.82;;
22070;SDS011;11200;51.488;6.668;2022-11-15T04:16:05;6.20;;;5.60;;
22070;SDS011;11200;51.488;6.668;2022-11-15T04:18:31;5.88;;;5.28;;
22070;SDS011;11200;51.488;6.668;2022-11-15T04:20:56;6.05;;;5.30;;
22070;SDS011;11200;51.488;6.668;2022-11-15T04:23:40;6.35;;;5.22;;
22070;SDS011;11200;51.488;6.668;2022-11-15T04:26:24;6.60;;;5.80;;
22070;SDS011;11200;51.488;6.668;2022-11-15T04:28:50;6.85;;;5.38;;
22070;SDS011;11200;51.488;6.668;2022-11-15T04:31:34;7.07;;;5.72;;
22070;SDS011;11200;51.488;6.668;2022-11-15T04:34:00;5.88;;;5.28;;
22070;SDS011;11200;51.488;6.668;2022-11-15T04:36:26;5.63;;;4.88;;
22070;SDS011;11200;51.488;6.668;2022-11-15T04:39:10;5.85;;;5.20;;
22070;SDS011;11200;51.488;6.668;2022-11-15T04:41:36;7.07;;;5.55;;
22070;SDS011;11200;51.488;6.668;2022-11-15T04:44:01;5.80;;;5.20;;
22070;SDS011;11200;51.488;6.668;2022-11-15T04:46:27;5.30;;;4.60;;
22070;SDS011;11200;51.488;6.668;2022-11-15T04:48:53;6.32;;;5.20;;
22070;SDS011;11200;51.488;6.668;2022-11-15T04:51:19;6.53;;;5.00;;
22070;SDS011;11200;51.488;6.668;2022-11-15T04:53:45;6.25;;;5.07;;
22070;SDS011;11200;51.488;6.668;2022-11-15T04:56:11;5.60;;;4.93;;
22070;SDS011;11200;51.488;6.668;2022-11-15T04:58:37;5.63;;;4.95;;
22070;SDS011;11200;51.488;6.668;2022-11-15T05:01:06;6.47;;;5.20;;
22070;SDS011;11200;51.488;6.668;2022-11-15T05:03:37;5.68;;;4.65;;
22070;SDS011;11200;51.488;6.668;2022-11-15T05:06:21;6.47;;;4.63;;
22070;SDS011;11200;51.488;6.668;2022-11-15T05:08:47;5.10;;;4.60;;
22070;SDS011;11200;51.488;6.668;2022-11-15T05:11:12;6.03;;;5.03;;
22070;SDS011;11200;51.488;6.668;2022-11-15T05:13:38;5.22;;;4.72;;
22070;SDS011;11200;51.488;6.668;2022-11-15T05:16:04;5.10;;;4.50;;
22070;SDS011;11200;51.488;6.668;2022-11-15T05:18:29;5.45;;;4.80;;
22070;SDS011;11200;51.488;6.668;2022-11-15T05:20:55;5.80;;;4.97;;
22070;SDS011;11200;51.488;6.668;2022-11-15T05:23:20;5.00;;;4.50;;
22070;SDS011;11200;51.488;6.668;2022-11-15T05:25:46;5.43;;;4.63;;
22070;SDS011;11200;51.488;6.668;2022-11-15T05:28:15;4.80;;;4.30;;
22070;SDS011;11200;51.488;6.668;2022-11-15T05:30:40;6.15;;;4.60;;
22070;SDS011;11200;51.488;6.668;2022-11-15T05:33:06;5.55;;;4.78;;
22070;SDS011;11200;51.488;6.668;2022-11-15T05:35:41;5.28;;;4.50;;
22070;SDS011;11200;51.488;6.668;2022-11-15T05:38:11;4.90;;;4.45;;
22070;SDS011;11200;51.488;6.668;2022-11-15T05:40:36;5.85;;;4.97;;
22070;SDS011;11200;51.488;6.668;2022-11-15T05:43:02;5.38;;;4.85;;
22070;SDS011;11200;51.488;6.668;2022-11-15T05:45:29;5.10;;;4.40;;
22070;SDS011;11200;51.488;6.668;2022-11-15T05:47:57;6.55;;;5.25;;
22070;SDS011;11200;51.488;6.668;2022-11-15T05:50:24;6.05;;;5.13;;
22070;SDS011;11200;51.488;6.668;2022-11-15T05:52:51;5.30;;;4.80;;
22070;SDS011;11200;51.488;6.668;2022-11-15T05:55:16;5.50;;;4.85;;
22070;SDS011;11200;51.488;6.668;2022-11-15T05:57:43;5.40;;;4.85;;
22070;SDS011;11200;51.488;6.668;2022-11-15T06:00:09;5.72;;;4.63;;
22070;SDS011;11200;51.488;6.668;2022-11-15T06:02:35;5.28;;;4.60;;
22070;SDS011;11200;51.488;6.668;2022-11-15T06:05:01;5.18;;;4.55;;
22070;SDS011;11200;51.488;6.668;2022-11-15T06:07:28;5.20;;;4.68;;
22070;SDS011;11200;51.488;6.668;2022-11-15T06:09:54;5.63;;;4.60;;
22070;SDS011;11200;51.488;6.668;2022-11-15T06:12:20;5.25;;;4.60;;
22070;SDS011;11200;51.488;6.668;2022-11-15T06:14:45;5.10;;;4.63;;
22070;SDS011;11200;51.488;6.668;2022-11-15T06:17:11;7.13;;;4.68;;
22070;SDS011;11200;51.488;6.668;2022-11-15T06:19:36;6.10;;;5.20;;
22070;SDS011;11200;51.488;6.668;2022-11-15T06:22:02;4.93;;;4.50;;
22070;SDS011;11200;51.488;6.668;2022-11-15T06:24:27;5.95;;;5.25;;
22070;SDS011;11200;51.488;6.668;2022-11-15T06:26:53;6.55;;;4.90;;
22070;SDS011;11200;51.488;6.668;2022-11-15T06:29:19;5.63;;;5.03;;
22070;SDS011;11200;51.488;6.668;2022-11-15T06:31:44;5.50;;;5.00;;
22070;SDS011;11200;51.488;6.668;2022-11-15T06:34:10;5.47;;;4.90;;
22070;SDS011;11200;51.488;6.668;2022-11-15T06:36:36;6.90;;;4.55;;
22070;SDS011;11200;51.488;6.668;2022-11-15T06:39:02;5.47;;;4.90;;
22070;SDS011;11200;51.488;6.668;2022-11-15T06:41:29;5.30;;;4.80;;
22070;SDS011;11200;51.488;6.668;2022-11-15T06:43:54;5.18;;;4.68;;
22070;SDS011;11200;51.488;6.668;2022-11-15T06:46:21;6.90;;;4.70;;
22070;SDS011;11200;51.488;6.668;2022-11-15T06:48:46;5.30;;;4.80;;
22070;SDS011;11200;51.488;6.668;2022-11-15T06:51:14;5.35;;;4.82;;
22070;SDS011;11200;51.488;6.668;2022-11-15T06:53:39;5.80;;;5.05;;
22070;SDS011;11200;51.488;6.668;2022-11-15T06:56:05;5.78;;;4.57;;
22070;SDS011;11200;51.488;6.668;2022-11-15T06:58:32;5.53;;;4.57;;
22070;SDS011;11200;51.488;6.668;2022-11-15T07:00:58;5.68;;;4.90;;
22070;SDS011;11200;51.488;6.668;2022-11-15T07:03:29;5.97;;;5.00;;
22070;SDS011;11200;51.488;6.668;2022-11-15T07:05:55;5.85;;;4.97;;
22070;SDS011;11200;51.488;6.668;2022-11-15T07:08:22;5.40;;;4.55;;
22070;SDS011;11200;51.488;6.668;2022-11-15T07:10:48;5.20;;;4.63;;
22070;SDS011;11200;51.488;6.668;2022-11-15T07:13:14;5.35;;;4.35;;
22070;SDS011;11200;51.488;6.668;2022-11-15T07:15:39;4.97;;;4.38;;
22070;SDS011;11200;51.488;6.668;2022-11-15T07:18:08;6.07;;;4.45;;
22070;SDS011;11200;51.488;6.668;2022-11-15T07:20:36;5.53;;;4.75;;
22070;SDS011;11200;51.488;6.668;2022-11-15T07:23:03;5.85;;;4.85;;
22070;SDS011;11200;51.488;6.668;2022-11-15T07:25:38;6.28;;;4.95;;
22070;SDS011;11200;51.488;6.668;2022-11-15T07:28:04;5.20;;;4.70;;
22070;SDS011;11200;51.488;6.668;2022-11-15T07:30:30;5.68;;;4.82;;
22070;SDS011;11200;51.488;6.668;2022-11-15T07:32:56;7.75;;;5.53;;
22070;SDS011;11200;51.488;6.668;2022-11-15T07:35:25;6.05;;;5.32;;
22070;SDS011;11200;51.488;6.668;2022-11-15T07:37:56;7.75;;;5.57;;
22070;SDS011;11200;51.488;6.668;2022-11-15T07:40:26;5.32;;;4.82;;
22070;SDS011;11200;51.488;6.668;2022-11-15T07:43:03;6.38;;;4.80;;
22070;SDS011;11200;51.488;6.668;2022-11-15T07:45:31;5.20;;;4.70;;
22070;SDS011;11200;51.488;6.668;2022-11-15T07:47:58;5.47;;;4.53;;
22070;SDS011;11200;51.488;6.668;2022-11-15T07:50:24;5.55;;;4.30;;
22070;SDS011;11200;51.488;6.668;2022-11-15T07:52:54;4.57;;;3.92;;
22070;SDS011;11200;51.488;6.668;2022-11-15T07:55:21;4.85;;;4.10;;
22070;SDS011;11200;51.488;6.668;2022-11-15T07:57:47;4.63;;;4.20;;
22070;SDS011;11200;51.488;6.668;2022-11-15T08:00:13;6.57;;;3.70;;
22070;SDS011;11200;51.488;6.668;2022-11-15T08:02:39;4.35;;;3.53;;
22070;SDS011;11200;51.488;6.668;2022-11-15T08:05:05;4.20;;;3.40;;
22070;SDS011;11200;51.488;6.668;2022-11-15T08:07:31;4.40;;;3.55;;
22070;SDS011;11200;51.488;6.668;2022-11-15T08:09:59;4.03;;;3.63;;
22070;SDS011;11200;51.488;6.668;2022-11-15T08:12:26;4.35;;;3.22;;
22070;SDS011;11200;51.488;6.668;2022-11-15T08:14:54;3.50;;;2.90;;
22070;SDS011;11200;51.488;6.668;2022-11-15T08:17:20;3.95;;;3.10;;
22070;SDS011;11200;51.488;6.668;2022-11-15T08:19:47;4.45;;;3.00;;
22070;SDS011;11200;51.488;6.668;2022-11-15T08:22:12;3.13;;;2.58;;
22070;SDS011;11200;51.488;6.668;2022-11-15T08:24:38;3.63;;;2.72;;
22070;SDS011;11200;51.488;6.668;2022-11-15T08:27:04;3.40;;;2.70;;
22070;SDS011;11200;51.488;6.668;2022-11-15T08:29:30;3.30;;;2.50;;
22070;SDS011;11200;51.488;6.668;2022-11-15T08:31:58;2.35;;;2.10;;
22070;SDS011;11200;51.488;6.668;2022-11-15T08:34:32;2.85;;;2.53;;
22070;SDS011;11200;51.488;6.668;2022-11-15T08:36:59;2.83;;;2.20;;
22070;SDS011;11200;51.488;6.668;2022-11-15T08:39:24;3.50;;;2.40;;
22070;SDS011;11200;51.488;6.668;2022-11-15T08:41:50;2.40;;;2.08;;
22070;SDS011;11200;51.488;6.668;2022-11-15T08:44:16;2.58;;;2.38;;
22070;SDS011;11200;51.488;6.668;2022-11-15T08:46:41;2.90;;;2.20;;
22070;SDS011;11200;51.488;6.668;2022-11-15T08:49:07;2.70;;;2.45;;
22070;SDS011;11200;51.488;6.668;2022-11-15T08:51:32;3.10;;;2.35;;
22070;SDS011;11200;51.488;6.668;2022-11-15T08:53:58;2.67;;;2.17;;
22070;SDS011;11200;51.488;6.668;2022-11-15T08:56:23;3.80;;;2.20;;
22070;SDS011;11200;51.488;6.668;2022-11-15T08:58:49;2.30;;;2.10;;
22070;SDS011;11200;51.488;6.668;2022-11-15T09:01:16;2.95;;;2.22;;
22070;SDS011;11200;51.488;6.668;2022-11-15T09:03:43;2.42;;;2.22;;
22070;SDS011;11200;51.488;6.668;2022-11-15T09:06:09;2.78;;;1.90;;
22070;SDS011;11200;51.488;6.668;2022-11-15T09:08:34;2.45;;;2.03;;
22070;SDS011;11200;51.488;6.668;2022-11-15T09:11:07;2.28;;;1.92;;
22070;SDS011;11200;51.488;6.668;2022-11-15T09:13:33;2.50;;;2.03;;
22070;SDS011;11200;51.488;6.668;2022-11-15T09:16:01;2.88;;;1.90;;
22070;SDS011;11200;51.488;6.668;2022-11-15T09:18:27;2.40;;;1.98;;
22070;SDS011;11200;51.488;6.668;2022-11-15T09:20:57;3.38;;;2.03;;
22070;SDS011;11200;51.488;6.668;2022-11-15T09:23:23;2.42;;;2.00;;
22070;SDS011;11200;51.488;6.668;2022-11-15T09:25:49;2.40;;;1.83;;
22070;SDS011;11200;51.488;6.668;2022-11-15T09:28:15;2.70;;;1.98;;
22070;SDS011;11200;51.488;6.668;2022-11-15T09:30:41;2.30;;;1.90;;
22070;SDS011;11200;51.488;6.668;2022-11-15T09:33:10;2.55;;;1.95;;
22070;SDS011;11200;51.488;6.668;2022-11-15T09:35:37;2.35;;;1.90;;
22070;SDS011;11200;51.488;6.668;2022-11-15T09:38:03;2.50;;;1.88;;
22070;SDS011;11200;51.488;6.668;2022-11-15T09:40:29;3.80;;;1.95;;
22070;SDS011;11200;51.488;6.668;2022-11-15T09:45:42;3.80;;;2.15;;
22070;SDS011;11200;51.488;6.668;2022-11-15T09:51:19;3.13;;;1.95;;
22070;SDS011;11200;51.488;6.668;2022-11-15T09:54:00;2.75;;;2.05;;
22070;SDS011;11200;51.488;6.668;2022-11-15T09:56:37;2.47;;;1.90;;
22070;SDS011;11200;51.488;6.668;2022-11-15T10:04:48;2.78;;;2.15;;
22070;SDS011;11200;51.488;6.668;2022-11-15T10:12:46;2.58;;;2.15;;
22070;SDS011;11200;51.488;6.668;2022-11-15T10:15:14;2.60;;;2.20;;
22070;SDS011;11200;51.488;6.668;2022-11-15T10:20:31;3.10;;;2.20;;
22070;SDS011;11200;51.488;6.668;2022-11-15T10:23:06;2.83;;;2.10;;
22070;SDS011;11200;51.488;6.668;2022-11-15T10:25:38;2.58;;;1.90;;
22070;SDS011;11200;51.488;6.668;2022-11-15T10:28:14;2.47;;;1.77;;
22070;SDS011;11200;51.488;6.668;2022-11-15T10:30:46;2.03;;;1.80;;
22070;SDS011;11200;51.488;6.668;2022-11-15T10:41:13;2.45;;;1.80;;
22070;SDS011;11200;51.488;6.668;2022-11-15T10:43:40;3.38;;;1.90;;
22070;SDS011;11200;51.488;6.668;2022-11-15T10:46:22;3.28;;;2.03;;
22070;SDS011;11200;51.488;6.668;2022-11-15T10:48:49;2.95;;;1.90;;
22070;SDS011;11200;51.488;6.668;2022-11-15T10:51:25;2.28;;;1.70;;
22070;SDS011;11200;51.488;6.668;2022-11-15T10:53:56;1.98;;;1.60;;
22070;SDS011;11200;51.488;6.668;2022-11-15T10:56:24;3.75;;;1.88;;
22070;SDS011;11200;51.488;6.668;2022-11-15T10:58:55;2.45;;;1.80;;
22070;SDS011;11200;51.488;6.668;2022-11-15T11:01:23;2.90;;;1.75;;
22070;SDS011;11200;51.488;6.668;2022-11-15T11:06:28;2.83;;;1.80;;
22070;SDS011;11200;51.488;6.668;2022-11-15T11:08:59;2.80;;;1.92;;
22070;SDS011;11200;51.488;6.668;2022-11-15T11:14:12;2.42;;;1.77;;
22070;SDS011;11200;51.488;6.668;2022-11-15T11:16:44;2.58;;;2.00;;
22070;SDS011;11200;51.488;6.668;2022-11-15T11:22:09;2.55;;;2.08;;
22070;SDS011;11200;51.488;6.668;2022-11-15T11:24:56;2.85;;;2.00;;
22070;SDS011;11200;51.488;6.668;2022-11-15T11:27:35;3.92;;;2.58;;
22070;SDS011;11200;51.488;6.668;2022-11-15T11:32:47;3.53;;;2.38;;
22070;SDS011;11200;51.488;6.668;2022-11-15T11:35:20;2.13;;;1.90;;
22070;SDS011;11200;51.488;6.668;2022-11-15T11:43:57;3.70;;;2.30;;
22070;SDS011;11200;51.488;6.668;2022-11-15T11:46:38;3.33;;;2.20;;
22070;SDS011;11200;51.488;6.668;2022-11-15T11:51:48;2.90;;;2.05;;
22070;SDS011;11200;51.488;6.668;2022-11-15T11:57:03;2.72;;;1.92;;
22070;SDS011;11200;51.488;6.668;2022-11-15T11:59:37;3.13;;;2.00;;
22070;SDS011;11200;51.488;6.668;2022-11-15T12:02:20;2.60;;;1.60;;
22070;SDS011;11200;51.488;6.668;2022-11-15T12:04:52;2.40;;;1.90;;
22070;SDS011;11200;51.488;6.668;2022-11-15T12:07:30;3.47;;;1.75;;
22070;SDS011;11200;51.488;6.668;2022-11-15T12:13:10;2.42;;;1.60;;
22070;SDS011;11200;51.488;6.668;2022-11-15T12:18:13;3.00;;;1.70;;
22070;SDS011;11200;51.488;6.668;2022-11-15T12:20:42;2.55;;;1.60;;
22070;SDS011;11200;51.488;6.668;2022-11-15T12:23:26;3.28;;;1.45;;
22070;SDS011;11200;51.488;6.668;2022-11-15T12:26:00;3.25;;;1.45;;
22070;SDS011;11200;51.488;6.668;2022-11-15T12:31:12;2.88;;;1.40;;
22070;SDS011;11200;51.488;6.668;2022-11-15T12:33:57;2.63;;;1.40;;
22070;SDS011;11200;51.488;6.668;2022-11-15T12:41:32;3.70;;;1.60;;
22070;SDS011;11200;51.488;6.668;2022-11-15T12:43:59;4.60;;;1.50;;
22070;SDS011;11200;51.488;6.668;2022-11-15T12:48:58;2.22;;;1.35;;
22070;SDS011;11200;51.488;6.668;2022-11-15T12:52:10;2.55;;;1.50;;
22070;SDS011;11200;51.488;6.668;2022-11-15T13:02:18;2.22;;;1.40;;
22070;SDS011;11200;51.488;6.668;2022-11-15T13:04:46;2.72;;;1.20;;
22070;SDS011;11200;51.488;6.668;2022-11-15T13:09:59;1.95;;;1.17;;
22070;SDS011;11200;51.488;6.668;2022-11-15T13:17:39;2.67;;;1.20;;
22070;SDS011;11200;51.488;6.668;2022-11-15T13:20:27;2.08;;;1.13;;
22070;SDS011;11200;51.488;6.668;2022-11-15T13:28:11;2.22;;;1.00;;
22070;SDS011;11200;51.488;6.668;2022-11-15T13:33:15;1.15;;;0.95;;
22070;SDS011;11200;51.488;6.668;2022-11-15T13:35:57;1.40;;;1.10;;
22070;SDS011;11200;51.488;6.668;2022-11-15T13:40:54;1.65;;;1.20;;
22070;SDS011;11200;51.488;6.668;2022-11-15T13:43:34;2.45;;;1.13;;
22070;SDS011;11200;51.488;6.668;2022-11-15T13:48:53;1.38;;;0.90;;
22070;SDS011;11200;51.488;6.668;2022-11-15T13:51:21;2.13;;;1.00;;
22070;SDS011;11200;51.488;6.668;2022-11-15T13:53:54;3.72;;;1.20;;
22070;SDS011;11200;51.488;6.668;2022-11-15T13:56:26;2.85;;;1.15;;
22070;SDS011;11200;51.488;6.668;2022-11-15T13:58:53;1.98;;;0.90;;
22070;SDS011;11200;51.488;6.668;2022-11-15T14:01:22;2.05;;;1.10;;
22070;SDS011;11200;51.488;6.668;2022-11-15T14:03:54;2.20;;;1.20;;
22070;SDS011;11200;51.488;6.668;2022-11-15T14:06:22;2.95;;;1.15;;
22070;SDS011;11200;51.488;6.668;2022-11-15T14:09:02;2.08;;;1.15;;
22070;SDS011;11200;51.488;6.668;2022-11-15T14:11:34;2.45;;;1.23;;
22070;SDS011;11200;51.488;6.668;2022-11-15T14:16:41;4.65;;;1.50;;
22070;SDS011;11200;51.488;6.668;2022-11-15T14:24:42;3.40;;;1.15;;
22070;SDS011;11200;51.488;6.668;2022-11-15T14:27:20;3.75;;;1.20;;
22070;SDS011;11200;51.488;6.668;2022-11-15T14:29:47;1.60;;;0.98;;
22070;SDS011;11200;51.488;6.668;2022-11-15T14:34:47;2.38;;;1.33;;
22070;SDS011;11200;51.488;6.668;2022-11-15T14:37:32;2.35;;;1.00;;
22070;SDS011;11200;51.488;6.668;2022-11-15T14:40:03;3.28;;;1.33;;
22070;SDS011;11200;51.488;6.668;2022-11-15T14:42:30;3.50;;;1.25;;
22070;SDS011;11200;51.488;6.668;2022-11-15T14:44:56;3.90;;;1.25;;
22070;SDS011;11200;51.488;6.668;2022-11-15T14:47:27;2.33;;;1.30;;
22070;SDS011;11200;51.488;6.668;2022-11-15T14:49:56;2.17;;;1.38;;
22070;SDS011;11200;51.488;6.668;2022-11-15T14:54:54;2.72;;;1.40;;
22070;SDS011;11200;51.488;6.668;2022-11-15T14:57:20;2.20;;;1.45;;
22070;SDS011;11200;51.488;6.668;2022-11-15T14:59:45;3.63;;;1.60;;
22070;SDS011;11200;51.488;6.668;2022-11-15T15:02:24;2.72;;;1.40;;
22070;SDS011;11200;51.488;6.668;2022-11-15T15:04:53;4.43;;;1.70;;
22070;SDS011;11200;51.488;6.668;2022-11-15T15:07:22;3.15;;;1.80;;
22070;SDS011;11200;51.488;6.668;2022-11-15T15:09:47;4.82;;;1.83;;
22070;SDS011;11200;51.488;6.668;2022-11-15T15:12:17;3.38;;;2.00;;
22070;SDS011;11200;51.488;6.668;2022-11-15T15:14:44;4.82;;;2.13;;
22070;SDS011;11200;51.488;6.668;2022-11-15T15:17:11;3.33;;;2.05;;
22070;SDS011;11200;51.488;6.668;2022-11-15T15:19:37;4.30;;;2.00;;
22070;SDS011;11200;51.488;6.668;2022-11-15T15:22:02;5.43;;;2.40;;
22070;SDS011;11200;51.488;6.668;2022-11-15T15:24:28;4.55;;;2.40;;
22070;SDS011;11200;51.488;6.668;2022-11-15T15:26:57;4.78;;;2.50;;
22070;SDS011;11200;51.488;6.668;2022-11-15T15:29:22;4.20;;;2.05;;
22070;SDS011;11200;51.488;6.668;2022-11-15T15:31:51;3.67;;;2.33;;
22070;SDS011;11200;51.488;6.668;2022-11-15T15:34:19;3.67;;;2.22;;
22070;SDS011;11200;51.488;6.668;2022-11-15T15:36:45;3.40;;;1.88;;
22070;SDS011;11200;51.488;6.668;2022-11-15T15:41:59;4.05;;;1.90;;
22070;SDS011;11200;51.488;6.668;2022-11-15T15:44:28;3.63;;;2.22;;
22070;SDS011;11200;51.488;6.668;2022-11-15T15:46:54;2.78;;;2.05;;
22070;SDS011;11200;51.488;6.668;2022-11-15T15:49:19;3.55;;;2.28;;
22070;SDS011;11200;51.488;6.668;2022-11-15T15:51:48;2.90;;;2.00;;
22070;SDS011;11200;51.488;6.668;2022-11-15T15:54:14;3.08;;;1.92;;
22070;SDS011;11200;51.488;6.668;2022-11-15T15:56:39;2.30;;;1.95;;
22070;SDS011;11200;51.488;6.668;2022-11-15T15:59:05;3.30;;;2.15;;
22070;SDS011;11200;51.488;6.668;2022-11-15T16:01:33;2.58;;;2.03;;
22070;SDS011;11200;51.488;6.668;2022-11-15T16:03:59;3.58;;;2.20;;
22070;SDS011;11200;51.488;6.668;2022-11-15T16:06:37;3.15;;;2.13;;
22070;SDS011;11200;51.488;6.668;2022-11-15T16:09:08;3.22;;;2.10;;
22070;SDS011;11200;51.488;6.668;2022-11-15T16:11:38;3.42;;;1.98;;
22070;SDS011;11200;51.488;6.668;2022-11-15T16:14:06;4.88;;;2.05;;
22070;SDS011;11200;51.488;6.668;2022-11-15T16:16:32;3.17;;;2.30;;
22070;SDS011;11200;51.488;6.668;2022-11-15T16:18:59;3.60;;;2.10;;
22070;SDS011;11200;51.488;6.668;2022-11-15T16:21:25;3.45;;;2.10;;
22070;SDS011;11200;51.488;6.668;2022-11-15T16:23:51;2.80;;;2.10;;
22070;SDS011;11200;51.488;6.668;2022-11-15T16:26:24;2.65;;;1.95;;
22070;SDS011;11200;51.488;6.668;2022-11-15T16:28:52;3.95;;;2.10;;
22070;SDS011;11200;51.488;6.668;2022-11-15T16:31:18;2.65;;;2.20;;
22070;SDS011;11200;51.488;6.668;2022-11-15T16:33:47;2.95;;;2.47;;
22070;SDS011;11200;51.488;6.668;2022-11-15T16:36:20;3.10;;;2.15;;
22070;SDS011;11200;51.488;6.668;2022-11-15T16:38:47;2.65;;;2.08;;
22070;SDS011;11200;51.488;6.668;2022-11-15T16:41:14;3.42;;;2.10;;
22070;SDS011;11200;51.488;6.668;2022-11-15T16:43:45;2.95;;;2.08;;
22070;SDS011;11200;51.488;6.668;2022-11-15T16:46:15;2.72;;;2.15;;
22070;SDS011;11200;51.488;6.668;2022-11-15T16:48:44;3.88;;;2.45;;
22070;SDS011;11200;51.488;6.668;2022-11-15T16:51:09;2.70;;;2.00;;
22070;SDS011;11200;51.488;6.668;2022-11-15T16:53:35;3.60;;;2.28;;
22070;SDS011;11200;51.488;6.668;2022-11-15T16:56:01;3.17;;;2.10;;
22070;SDS011;11200;51.488;6.668;2022-11-15T16:58:27;4.05;;;2.63;;
22070;SDS011;11200;51.488;6.668;2022-11-15T17:00:53;3.70;;;2.50;;
22070;SDS011;11200;51.488;6.668;2022-11-15T17:03:21;3.72;;;2.58;;
22070;SDS011;11200;51.488;6.668;2022-11-15T17:05:48;3.47;;;2.30;;
22070;SDS011;11200;51.488;6.668;2022-11-15T17:08:21;3.33;;;2.35;;
22070;SDS011;11200;51.488;6.668;2022-11-15T17:11:00;4.43;;;2.58;;
22070;SDS011;11200;51.488;6.668;2022-11-15T17:13:54;3.40;;;2.35;;
22070;SDS011;11200;51.488;6.668;2022-11-15T17:16:52;3.58;;;2.60;;
22070;SDS011;11200;51.488;6.668;2022-11-15T17:19:41;3.60;;;2.53;;